createdAt,value
2022-10-23T00:01:45.444Z,100903.88
2022-10-23T00:04:15.951Z,100909.31
2022-10-23T00:06:44.792Z,100904.13
2022-10-23T00:09:16.038Z,100900.75
2022-10-23T00:11:44.567Z,100903.53
2022-10-23T00:14:13.829Z,100911.63
2022-10-23T00:16:41.451Z,100906.44
2022-10-23T00:19:09.088Z,100910.09
2022-10-23T00:21:36.772Z,100911.19
2022-10-23T00:24:04.846Z,100924.59
2022-10-23T00:26:32.616Z,100920.38
2022-10-23T00:29:00.199Z,100926.78
2022-10-23T00:31:30.118Z,100916.41
2022-10-23T00:33:57.718Z,100906.91
2022-10-23T00:36:25.342Z,100905.31
2022-10-23T00:38:52.934Z,100902.94
2022-10-23T00:41:22.746Z,100904.03
2022-10-23T00:44:00.323Z,100896.31
2022-10-23T00:46:30.176Z,100897.25
2022-10-23T00:48:59.092Z,100902.72
2022-10-23T00:51:30.626Z,100902.00
2022-10-23T00:54:22.781Z,100906.47
2022-10-23T00:56:49.456Z,100902.38
2022-10-23T00:59:17.214Z,100895.38
2022-10-23T01:01:46.439Z,100904.31
2022-10-23T01:04:14.206Z,100908.91
2022-10-23T01:06:49.185Z,100904.69
2022-10-23T01:09:22.121Z,100911.13
2022-10-23T01:11:56.843Z,100905.06
2022-10-23T01:14:30.640Z,100903.50
2022-10-23T01:17:10.367Z,100904.59
2022-10-23T01:19:52.474Z,100911.84
2022-10-23T01:22:34.580Z,100917.41
2022-10-23T01:25:03.549Z,100912.22
2022-10-23T01:27:37.031Z,100906.34
2022-10-23T01:30:08.258Z,100900.28
2022-10-23T01:32:47.196Z,100880.00
2022-10-23T01:35:20.110Z,100885.59
2022-10-23T01:38:00.500Z,100886.66
2022-10-23T01:40:34.406Z,100883.44
2022-10-23T01:43:09.759Z,100888.13
2022-10-23T01:45:43.774Z,100879.56
2022-10-23T01:48:20.262Z,100875.34
2022-10-23T01:50:48.234Z,100882.63
2022-10-23T01:53:16.019Z,100881.88
2022-10-23T01:55:45.142Z,100878.50
2022-10-23T01:58:21.939Z,100879.59
2022-10-23T02:00:52.730Z,100870.06
2022-10-23T02:03:21.394Z,100868.53
2022-10-23T02:05:49.108Z,100874.91
2022-10-23T02:08:17.062Z,100868.75
2022-10-23T02:10:53.292Z,100868.03
2022-10-23T02:13:28.988Z,100865.47
2022-10-23T02:16:05.231Z,100862.97
2022-10-23T02:18:38.924Z,100859.59
2022-10-23T02:21:12.791Z,100856.09
2022-10-23T02:23:45.978Z,100851.88
2022-10-23T02:26:19.426Z,100842.22
2022-10-23T02:28:54.980Z,100849.47
2022-10-23T02:31:24.600Z,100843.47
2022-10-23T02:33:54.305Z,100837.28
2022-10-23T02:36:22.148Z,100826.09
2022-10-23T02:38:50.118Z,100812.09
2022-10-23T02:41:28.925Z,100809.56
2022-10-23T02:44:15.595Z,100809.69
2022-10-23T02:46:51.992Z,100808.84
2022-10-23T02:49:26.639Z,100812.47
2022-10-23T02:52:01.458Z,100813.31
2022-10-23T02:54:43.788Z,100806.19
2022-10-23T02:57:20.025Z,100815.00
2022-10-23T02:59:59.680Z,100809.00
2022-10-23T03:02:33.028Z,100804.63
2022-10-23T03:05:02.955Z,100804.63
2022-10-23T03:07:30.835Z,100798.47
2022-10-23T03:10:06.682Z,100804.88
2022-10-23T03:12:34.492Z,100798.75
2022-10-23T03:15:03.480Z,100791.75
2022-10-23T03:17:31.297Z,100792.72
2022-10-23T03:20:00.974Z,100805.84
2022-10-23T03:22:28.636Z,100810.31
2022-10-23T03:24:56.878Z,100806.81
2022-10-23T03:27:24.705Z,100805.97
2022-10-23T03:29:52.408Z,100808.72
2022-10-23T03:32:21.719Z,100807.75
2022-10-23T03:34:49.311Z,100798.03
2022-10-23T03:37:17.363Z,100799.81
2022-10-23T03:39:45.058Z,100789.19
2022-10-23T03:42:12.695Z,100791.97
2022-10-23T03:44:40.312Z,100789.47
2022-10-23T03:47:09.854Z,100786.09
2022-10-23T03:49:38.998Z,100775.72
2022-10-23T03:52:08.679Z,100774.88
2022-10-23T03:54:36.688Z,100763.44
2022-10-23T03:57:04.532Z,100761.75
2022-10-23T03:59:32.368Z,100759.09
2022-10-23T04:02:00.642Z,100763.56
2022-10-23T04:04:28.480Z,100758.13
2022-10-23T04:06:57.430Z,100761.63
2022-10-23T04:09:25.174Z,100756.31
2022-10-23T04:11:52.959Z,100753.66
2022-10-23T04:14:20.608Z,100757.88
2022-10-23T04:16:48.523Z,100753.41
2022-10-23T04:19:17.115Z,100748.09
2022-10-23T04:21:45.240Z,100747.16
2022-10-23T04:24:14.621Z,100755.13
2022-10-23T04:26:42.203Z,100757.63
2022-10-23T04:29:11.532Z,100752.34
2022-10-23T04:31:39.164Z,100758.47
2022-10-23T04:36:39.360Z,100752.19
2022-10-23T04:39:11.514Z,100749.56
2022-10-23T04:41:40.524Z,100750.38
2022-10-23T04:44:08.334Z,100751.22
2022-10-23T04:46:39.285Z,100750.38
2022-10-23T04:49:06.908Z,100752.06
2022-10-23T04:51:50.163Z,100753.78
2022-10-23T04:54:37.790Z,100749.31
2022-10-23T04:57:24.905Z,100739.78
2022-10-23T04:59:57.335Z,100740.75
2022-10-23T05:02:25.899Z,100726.78
2022-10-23T05:04:54.527Z,100723.28
2022-10-23T05:07:34.052Z,100718.84
2022-10-23T05:10:10.466Z,100716.06
2022-10-23T05:13:05.414Z,100720.38
2022-10-23T05:15:33.209Z,100714.94
2022-10-23T05:18:09.650Z,100716.66
2022-10-23T05:20:40.242Z,100709.53
2022-10-23T05:23:14.508Z,100714.84
2022-10-23T05:25:51.572Z,100714.72
2022-10-23T05:28:20.787Z,100711.94
2022-10-23T05:30:49.140Z,100709.13
2022-10-23T05:33:18.212Z,100703.72
2022-10-23T05:35:46.366Z,100693.00
2022-10-23T05:38:17.324Z,100701.66
2022-10-23T05:40:45.365Z,100704.06
2022-10-23T05:43:21.060Z,100699.34
2022-10-23T05:45:51.428Z,100699.09
2022-10-23T05:48:39.344Z,100703.28
2022-10-23T05:51:40.609Z,100706.69
2022-10-23T05:54:27.202Z,100698.59
2022-10-23T05:57:13.494Z,100694.97
2022-10-23T05:59:48.229Z,100687.00
2022-10-23T06:02:35.940Z,100695.81
2022-10-23T06:05:12.669Z,100691.47
2022-10-23T06:07:59.983Z,100686.16
2022-10-23T06:10:28.106Z,100673.88
2022-10-23T06:12:58.360Z,100675.56
2022-10-23T06:15:28.831Z,100685.19
2022-10-23T06:18:07.664Z,100672.06
2022-10-23T06:20:39.820Z,100675.56
2022-10-23T06:23:15.665Z,100678.06
2022-10-23T06:26:20.199Z,100678.06
2022-10-23T06:28:54.886Z,100672.66
2022-10-23T06:31:26.848Z,100670.84
2022-10-23T06:33:56.938Z,100674.22
2022-10-23T06:36:25.314Z,100668.06
2022-10-23T06:38:57.274Z,100659.00
2022-10-23T06:41:42.013Z,100653.56
2022-10-23T06:44:10.187Z,100656.09
2022-10-23T06:46:51.517Z,100652.31
2022-10-23T06:49:37.552Z,100646.66
2022-10-23T06:52:14.268Z,100649.88
2022-10-23T06:54:52.206Z,100650.47
2022-10-23T06:57:25.162Z,100643.09
2022-10-23T06:59:52.841Z,100640.06
2022-10-23T07:02:22.920Z,100650.25
2022-10-23T07:04:50.551Z,100649.88
2022-10-23T07:07:20.368Z,100646.84
2022-10-23T07:09:49.945Z,100648.13
2022-10-23T07:12:38.538Z,100645.78
2022-10-23T07:15:39.186Z,100645.25
2022-10-23T07:18:14.377Z,100634.09
2022-10-23T07:21:05.103Z,100638.72
2022-10-23T07:23:33.437Z,100645.09
2022-10-23T07:26:06.896Z,100643.41
2022-10-23T07:28:35.670Z,100640.94
2022-10-23T07:31:04.251Z,100649.09
2022-10-23T07:33:53.630Z,100645.63
2022-10-23T07:36:22.706Z,100642.28
2022-10-23T07:38:51.287Z,100638.81
2022-10-23T07:41:19.164Z,100626.69
2022-10-23T07:43:46.759Z,100626.81
2022-10-23T07:46:15.162Z,100624.19
2022-10-23T07:48:43.567Z,100635.63
2022-10-23T07:51:15.927Z,100625.16
2022-10-23T07:53:49.850Z,100636.63
2022-10-23T07:56:35.118Z,100627.94
2022-10-23T07:59:23.052Z,100628.75
2022-10-23T08:01:56.311Z,100630.88
2022-10-23T08:04:29.451Z,100637.00
2022-10-23T08:07:07.063Z,100626.63
2022-10-23T08:09:40.565Z,100619.78
2022-10-23T08:12:09.964Z,100611.19
2022-10-23T08:20:16.413Z,100618.41
2022-10-23T08:22:47.691Z,100615.88
2022-10-23T08:25:24.917Z,100617.94
2022-10-23T08:27:53.785Z,100618.19
2022-10-23T08:30:21.344Z,100615.66
2022-10-23T08:32:49.559Z,100606.09
2022-10-23T08:35:17.794Z,100607.19
2022-10-23T08:37:46.771Z,100603.94
2022-10-23T08:40:16.784Z,100605.16
2022-10-23T08:43:07.651Z,100607.22
2022-10-23T08:45:41.286Z,100604.94
2022-10-23T08:48:24.214Z,100602.69
2022-10-23T08:51:17.291Z,100600.38
2022-10-23T08:53:53.528Z,100592.75
2022-10-23T08:56:26.831Z,100591.47
2022-10-23T08:58:59.122Z,100585.69
2022-10-23T09:01:38.699Z,100584.09
2022-10-23T09:04:07.375Z,100578.28
2022-10-23T09:06:39.991Z,100578.50
2022-10-23T09:09:37.090Z,100571.56
2022-10-23T09:12:08.628Z,100571.63
2022-10-23T09:14:53.341Z,100567.19
2022-10-23T09:17:25.722Z,100554.91
2022-10-23T09:20:00.104Z,100559.31
2022-10-23T09:22:28.893Z,100559.34
2022-10-23T09:24:57.774Z,100561.97
2022-10-23T09:31:49.280Z,100557.75
2022-10-23T09:34:20.369Z,100552.59
2022-10-23T09:36:53.161Z,100536.41
2022-10-23T09:39:25.478Z,100538.13
2022-10-23T09:41:56.901Z,100540.66
2022-10-23T09:44:27.665Z,100534.19
2022-10-23T09:46:59.925Z,100534.22
2022-10-23T09:49:29.706Z,100531.38
2022-10-23T09:52:02.247Z,100519.88
2022-10-23T09:54:32.869Z,100522.38
2022-10-23T09:57:06.974Z,100518.91
2022-10-23T09:59:35.089Z,100511.69
2022-10-23T10:02:05.002Z,100505.53
2022-10-23T10:04:54.049Z,100503.69
2022-10-23T10:07:23.310Z,100500.34
2022-10-23T10:09:51.138Z,100503.00
2022-10-23T10:12:32.295Z,100506.84
2022-10-23T10:15:07.045Z,100502.50
2022-10-23T10:17:40.504Z,100513.53
2022-10-23T10:20:30.559Z,100511.00
2022-10-23T10:23:05.820Z,100511.16
2022-10-23T10:25:38.553Z,100509.50
2022-10-23T10:28:27.735Z,100503.25
2022-10-23T10:31:07.607Z,100503.22
2022-10-23T10:33:48.373Z,100496.00
2022-10-23T10:36:30.963Z,100495.78
2022-10-23T10:39:01.258Z,100487.53
2022-10-23T10:41:45.619Z,100473.78
2022-10-23T10:44:43.539Z,100476.06
2022-10-23T10:47:21.271Z,100477.50
2022-10-23T10:50:00.726Z,100468.38
2022-10-23T10:53:02.398Z,100463.44
2022-10-23T10:55:35.374Z,100451.78
2022-10-23T10:58:06.647Z,100450.91
2022-10-23T11:00:36.344Z,100441.13
2022-10-23T11:03:17.643Z,100439.38
2022-10-23T11:05:49.002Z,100432.25
2022-10-23T11:08:21.436Z,100426.34
2022-10-23T11:10:54.219Z,100423.13
2022-10-23T11:13:27.836Z,100416.34
2022-10-23T11:16:01.977Z,100412.97
2022-10-23T11:18:31.846Z,100404.50
2022-10-23T11:21:09.255Z,100404.84
2022-10-23T11:24:15.564Z,100402.22
2022-10-23T11:26:56.192Z,100400.84
2022-10-23T11:29:45.833Z,100387.88
2022-10-23T11:32:30.224Z,100387.50
2022-10-23T11:35:36.289Z,100371.00
2022-10-23T11:38:17.100Z,100363.75
2022-10-23T11:40:48.079Z,100360.91
2022-10-23T11:43:27.119Z,100353.28
2022-10-23T11:45:54.709Z,100345.22
2022-10-23T11:48:36.794Z,100345.69
2022-10-23T11:51:05.609Z,100344.88
2022-10-23T11:53:41.145Z,100331.63
2022-10-23T11:56:27.514Z,100319.84
2022-10-23T11:58:59.054Z,100312.63
2022-10-23T12:01:36.475Z,100304.56
2022-10-23T12:04:19.562Z,100308.91
2022-10-23T12:06:50.267Z,100300.84
2022-10-23T12:09:28.554Z,100301.47
2022-10-23T12:12:06.243Z,100293.41
2022-10-23T12:14:36.342Z,100292.22
2022-10-23T12:17:19.710Z,100294.50
2022-10-23T12:19:50.998Z,100294.50
2022-10-23T12:22:22.126Z,100293.31
2022-10-23T12:25:01.702Z,100286.09
2022-10-23T12:27:34.245Z,100280.50
2022-10-23T12:30:19.427Z,100274.75
2022-10-23T12:32:59.915Z,100273.75
2022-10-23T12:36:06.231Z,100272.50
2022-10-23T12:38:36.426Z,100271.47
2022-10-23T12:41:12.005Z,100280.22
2022-10-23T12:43:42.043Z,100278.16
2022-10-23T12:46:27.017Z,100266.16
2022-10-23T12:48:56.557Z,100257.94
2022-10-23T12:51:28.381Z,100263.94
2022-10-23T12:53:55.940Z,100260.69
2022-10-23T12:56:25.393Z,100249.09
2022-10-23T12:58:56.374Z,100237.94
2022-10-23T13:01:26.742Z,100228.84
2022-10-23T13:04:00.571Z,100222.47
2022-10-23T13:06:30.145Z,100212.97
2022-10-23T13:08:58.349Z,100201.16
2022-10-23T13:11:36.287Z,100208.88
2022-10-23T13:14:12.467Z,100191.50
2022-10-23T13:16:40.078Z,100187.41
2022-10-23T13:19:07.649Z,100184.31
2022-10-23T13:21:36.612Z,100183.91
2022-10-23T13:24:04.569Z,100177.97
2022-10-23T13:26:35.753Z,100187.34
2022-10-23T13:29:08.747Z,100181.19
2022-10-23T13:31:37.253Z,100164.63
2022-10-23T13:34:18.470Z,100157.81
2022-10-23T13:36:56.719Z,100154.72
2022-10-23T13:39:26.477Z,100156.81
2022-10-23T13:41:54.367Z,100151.06
2022-10-23T13:44:24.656Z,100144.88
2022-10-23T13:46:53.013Z,100154.84
2022-10-23T13:49:20.904Z,100144.50
2022-10-23T13:51:52.594Z,100134.78
2022-10-23T13:54:23.308Z,100141.22
2022-10-23T13:56:51.767Z,100135.25
2022-10-23T13:59:19.538Z,100129.66
2022-10-23T14:01:48.742Z,100140.03
2022-10-23T14:04:17.843Z,100129.69
2022-10-23T14:06:45.821Z,100133.84
2022-10-23T14:09:15.209Z,100132.81
2022-10-23T14:11:44.989Z,100131.78
2022-10-23T14:14:12.962Z,100117.25
2022-10-23T14:16:40.839Z,100121.00
2022-10-23T14:19:08.885Z,100114.78
2022-10-23T14:21:36.516Z,100105.88
2022-10-23T14:24:04.438Z,100098.00
2022-10-23T14:26:32.732Z,100088.25
2022-10-23T14:29:05.143Z,100090.94
2022-10-23T14:31:37.457Z,100095.50
2022-10-23T14:34:04.998Z,100105.66
2022-10-23T14:36:43.185Z,100095.09
2022-10-23T14:39:17.781Z,100106.25
2022-10-23T14:41:45.284Z,100093.19
2022-10-23T14:44:14.181Z,100085.34
2022-10-23T14:46:41.750Z,100093.81
2022-10-23T14:49:09.295Z,100082.19
2022-10-23T14:51:36.879Z,100081.59
2022-10-23T14:54:07.029Z,100069.34
2022-10-23T14:56:37.671Z,100069.56
2022-10-23T14:59:06.422Z,100065.19
2022-10-23T15:01:42.273Z,100061.88
2022-10-23T15:04:14.489Z,100059.38
2022-10-23T15:06:42.499Z,100069.53
2022-10-23T15:09:10.171Z,100065.38
2022-10-23T15:11:37.650Z,100058.53
2022-10-23T15:14:05.431Z,100055.22
2022-10-23T15:16:33.063Z,100052.72
2022-10-23T15:19:02.023Z,100043.41
2022-10-23T15:21:29.545Z,100041.91
2022-10-23T15:23:57.089Z,100034.44
2022-10-23T15:26:25.507Z,100033.81
2022-10-23T15:28:58.593Z,100028.22
2022-10-23T15:31:46.901Z,100035.47
2022-10-23T15:34:17.959Z,100026.31
2022-10-23T15:36:46.851Z,100022.19
2022-10-23T15:39:16.537Z,100015.50
2022-10-23T15:41:44.292Z,100009.69
2022-10-23T15:44:15.337Z,100013.00
2022-10-23T15:46:43.167Z,100002.63
2022-10-23T15:49:11.098Z,100012.97
2022-10-23T15:51:40.712Z,100012.53
2022-10-23T15:54:10.278Z,100003.19
2022-10-23T15:56:38.127Z,100001.94
2022-10-23T15:59:05.656Z,100007.72
2022-10-23T16:01:33.750Z,100009.94
2022-10-23T16:04:01.347Z,100009.53
2022-10-23T16:06:29.011Z,100032.25
2022-10-23T16:08:58.023Z,100064.91
2022-10-23T16:11:27.466Z,100072.53
2022-10-23T16:13:55.720Z,100085.34
2022-10-23T16:16:23.564Z,100087.59
2022-10-23T16:18:52.195Z,100075.19
2022-10-23T16:21:21.850Z,100069.81
2022-10-23T16:23:50.131Z,100042.72
2022-10-23T16:26:20.082Z,100054.50
2022-10-23T16:28:48.235Z,100026.78
2022-10-23T16:31:20.576Z,100020.34
2022-10-23T16:33:49.287Z,100063.75
2022-10-23T16:36:17.700Z,100053.38
2022-10-23T16:39:08.803Z,100055.19
2022-10-23T16:41:56.548Z,100069.47
2022-10-23T16:44:29.042Z,100059.88
2022-10-23T16:46:58.930Z,100055.91
2022-10-23T16:49:26.543Z,100054.63
2022-10-23T16:51:54.163Z,100049.47
2022-10-23T16:54:21.834Z,100052.53
2022-10-23T16:56:49.812Z,100053.75
2022-10-23T16:59:18.728Z,100044.25
2022-10-23T17:01:46.561Z,100047.09
2022-10-23T17:04:14.242Z,100050.53
2022-10-23T17:06:42.197Z,100051.56
2022-10-23T17:09:09.699Z,100068.44
2022-10-23T17:11:39.113Z,100068.84
2022-10-23T17:14:08.964Z,100081.41
2022-10-23T17:16:39.917Z,100085.31
2022-10-23T17:19:20.914Z,100097.28
2022-10-23T17:21:58.205Z,100107.09
2022-10-23T17:24:26.721Z,100128.75
2022-10-23T17:26:54.635Z,100130.63
2022-10-23T17:29:23.125Z,100127.94
2022-10-23T17:31:52.685Z,100130.34
2022-10-23T17:34:23.788Z,100141.28
2022-10-23T17:36:54.198Z,100151.19
2022-10-23T17:39:26.007Z,100167.66
2022-10-23T17:41:53.556Z,100178.31
2022-10-23T17:44:21.574Z,100198.41
2022-10-23T17:46:53.682Z,100193.41
2022-10-23T17:49:22.089Z,100198.13
2022-10-23T17:51:52.553Z,100199.34
2022-10-23T17:54:20.176Z,100204.53
2022-10-23T17:56:47.790Z,100204.97
2022-10-23T17:59:18.780Z,100198.13
2022-10-23T18:01:48.064Z,100163.44
2022-10-23T18:04:19.298Z,100135.94
2022-10-23T18:06:50.886Z,100138.88
2022-10-23T18:09:19.042Z,100110.03
2022-10-23T18:11:48.308Z,100071.63
2022-10-23T18:14:17.164Z,100030.25
2022-10-23T18:16:45.474Z,100052.72
2022-10-23T18:19:13.494Z,100053.47
2022-10-23T18:21:42.909Z,100048.78
2022-10-23T18:24:10.921Z,100034.53
2022-10-23T18:26:40.795Z,100023.13
2022-10-23T18:29:09.681Z,100037.38
2022-10-23T18:31:38.408Z,100043.78
2022-10-23T18:34:08.339Z,100040.25
2022-10-23T18:36:38.030Z,100028.06
2022-10-23T18:39:09.004Z,100035.47
2022-10-23T18:41:39.080Z,100038.53
2022-10-23T18:44:07.925Z,100036.88
2022-10-23T18:46:36.579Z,100025.94
2022-10-23T18:49:05.042Z,100036.41
2022-10-23T18:51:35.541Z,100031.88
2022-10-23T18:54:04.674Z,100051.03
2022-10-23T18:56:35.653Z,100052.03
2022-10-23T18:59:05.574Z,100064.63
2022-10-23T19:01:34.720Z,100061.50
2022-10-23T19:04:03.220Z,100047.25
2022-10-23T19:06:35.335Z,100040.13
2022-10-23T19:09:07.735Z,100032.28
2022-10-23T19:11:37.853Z,100035.16
2022-10-23T19:14:05.790Z,100034.53
2022-10-23T19:16:38.390Z,100028.88
2022-10-23T19:19:16.478Z,100039.41
2022-10-23T19:21:45.191Z,100023.88
2022-10-23T19:24:17.054Z,100023.25
2022-10-23T19:26:45.879Z,100016.84
2022-10-23T19:29:17.687Z,100015.56
2022-10-23T19:31:48.913Z,100019.75
2022-10-23T19:34:19.607Z,100007.72
2022-10-23T19:36:47.461Z,100005.38
2022-10-23T19:39:15.190Z,99999.16
2022-10-23T19:41:43.018Z,100003.91
2022-10-23T19:44:13.895Z,99999.56
2022-10-23T19:46:41.658Z,99995.03
2022-10-23T19:49:09.735Z,99980.16
2022-10-23T19:51:37.377Z,99977.84
2022-10-23T19:54:06.306Z,99991.44
2022-10-23T19:56:33.862Z,100003.19
2022-10-23T19:59:01.389Z,99981.72
2022-10-23T20:01:30.451Z,99981.44
2022-10-23T20:03:58.607Z,99973.97
2022-10-23T20:06:28.132Z,99968.59
2022-10-23T20:08:55.919Z,99962.41
2022-10-23T20:11:26.814Z,99959.94
2022-10-23T20:13:54.476Z,99967.31
2022-10-23T20:16:24.491Z,99961.94
2022-10-23T20:18:53.519Z,99965.00
2022-10-23T20:21:22.170Z,99961.50
2022-10-23T20:23:50.116Z,99978.59
2022-10-23T20:26:18.934Z,99980.81
2022-10-23T20:28:48.387Z,99974.00
2022-10-23T20:31:16.825Z,99976.84
2022-10-23T20:33:44.722Z,99974.53
2022-10-23T20:36:24.027Z,99988.13
2022-10-23T20:38:52.337Z,99991.34
2022-10-23T20:41:20.743Z,99985.31
2022-10-23T20:43:48.356Z,99986.53
2022-10-23T20:46:16.065Z,99989.41
2022-10-23T20:48:45.206Z,99981.53
2022-10-23T20:51:15.383Z,99985.44
2022-10-23T20:53:45.403Z,99982.94
2022-10-23T20:56:15.815Z,99977.78
2022-10-23T20:58:43.507Z,99986.78
2022-10-23T21:01:16.261Z,99993.19
2022-10-23T21:03:44.473Z,99980.81
2022-10-23T21:06:13.803Z,99992.53
2022-10-23T21:08:41.722Z,99995.41
2022-10-23T21:11:14.519Z,100001.13
2022-10-23T21:13:42.980Z,100016.53
2022-10-23T21:16:15.315Z,100047.19
2022-10-23T21:18:46.978Z,100077.47
2022-10-23T21:21:17.135Z,100101.56
2022-10-23T21:23:44.673Z,100125.22
2022-10-23T21:26:14.398Z,100134.09
2022-10-23T21:28:47.412Z,100127.91
2022-10-23T21:31:24.358Z,100112.13
2022-10-23T21:33:52.659Z,100109.78
2022-10-23T21:36:23.823Z,100098.06
2022-10-23T21:38:53.208Z,100101.75
2022-10-23T21:41:24.310Z,100101.56
2022-10-23T21:43:53.663Z,100089.88
2022-10-23T21:46:22.138Z,100078.97
2022-10-23T21:48:49.797Z,100074.25
2022-10-23T21:51:22.049Z,100044.78
2022-10-23T21:53:50.138Z,100066.03
2022-10-23T21:56:31.319Z,100058.97
2022-10-23T21:59:00.462Z,100060.13
2022-10-23T22:01:28.634Z,100058.66
2022-10-23T22:03:56.886Z,100043.63
2022-10-23T22:06:26.970Z,100059.50
2022-10-23T22:08:56.238Z,100071.22
2022-10-23T22:11:24.117Z,100078.44
2022-10-23T22:13:53.143Z,100083.78
2022-10-23T22:16:21.201Z,100082.94
2022-10-23T22:18:49.384Z,100085.81
2022-10-23T22:21:18.882Z,100084.13
2022-10-23T22:23:48.969Z,100082.47
2022-10-23T22:26:23.053Z,100080.16
2022-10-23T22:28:51.334Z,100085.88
2022-10-23T22:31:22.438Z,100075.69
2022-10-23T22:33:50.448Z,100078.91
2022-10-23T22:36:18.270Z,100076.78
2022-10-23T22:38:46.353Z,100068.47
2022-10-23T22:41:14.489Z,100067.16
2022-10-23T22:43:42.126Z,100061.31
2022-10-23T22:46:11.634Z,100065.53
2022-10-23T22:48:41.597Z,100058.06
2022-10-23T22:51:11.389Z,100059.56
2022-10-23T22:53:39.050Z,100060.91
2022-10-23T22:56:07.663Z,100070.50
2022-10-23T22:58:35.919Z,100062.97
2022-10-23T23:01:06.980Z,100065.53
2022-10-23T23:03:36.334Z,100067.06
2022-10-23T23:06:07.111Z,100060.59
2022-10-23T23:08:35.498Z,100048.75
2022-10-23T23:11:03.698Z,100048.44
2022-10-23T23:13:31.448Z,100045.47
2022-10-23T23:15:59.113Z,100044.16
2022-10-23T23:18:27.209Z,100049.19
2022-10-23T23:20:54.786Z,100051.34
2022-10-23T23:23:23.817Z,100057.25
2022-10-23T23:25:51.340Z,100051.41
2022-10-23T23:28:21.381Z,100056.28
2022-10-23T23:30:49.712Z,100065.47
2022-10-23T23:33:19.866Z,100062.28
2022-10-23T23:35:48.102Z,100065.13
2022-10-23T23:38:16.326Z,100064.50
2022-10-23T23:40:50.873Z,100060.16
2022-10-23T23:43:18.875Z,100065.50
2022-10-23T23:45:46.670Z,100054.63
2022-10-23T23:48:14.234Z,100055.47
2022-10-23T23:50:41.863Z,100050.94
2022-10-23T23:53:09.563Z,100041.59
2022-10-23T23:55:37.366Z,100041.59
2022-10-23T23:58:06.515Z,100039.38
